sensor_id;sensor_type;location;lat;lon;timestamp;pressure;altitude;pressure_sealevel;temperature;humidity
13765;BME280;6953;48.810;9.204;2023-04-15T00:00:08;97714.28;;;5.65;100.00
13765;BME280;6953;48.810;9.204;2023-04-15T00:02:34;97583.03;;;4.86;100.00
13765;BME280;6953;48.810;9.204;2023-04-15T00:05:00;97676.41;;;5.42;100.00
13765;BME280;6953;48.810;9.204;2023-04-15T00:07:25;97509.34;;;4.34;100.00
13765;BME280;6953;48.810;9.204;2023-04-15T00:09:50;97792.25;;;6.02;100.00
13765;BME280;6953;48.810;9.204;2023-04-15T00:12:19;97801.94;;;6.00;100.00
13765;BME280;6953;48.810;9.204;2023-04-15T00:14:45;97793.34;;;5.98;100.00
13765;BME280;6953;48.810;9.204;2023-04-15T00:17:11;97519.38;;;4.23;100.00
13765;BME280;6953;48.810;9.204;2023-04-15T00:19:36;97792.97;;;5.88;100.00
13765;BME280;6953;48.810;9.204;2023-04-15T00:22:02;97791.56;;;5.81;100.00
13765;BME280;6953;48.810;9.204;2023-04-15T00:24:27;97796.75;;;5.81;100.00
13765;BME280;6953;48.810;9.204;2023-04-15T00:26:53;97761.25;;;5.62;100.00
13765;BME280;6953;48.810;9.204;2023-04-15T00:29:18;97711.84;;;5.26;100.00
13765;BME280;6953;48.810;9.204;2023-04-15T00:31:44;97792.81;;;5.73;100.00
13765;BME280;6953;48.810;9.204;2023-04-15T00:34:09;97787.06;;;5.66;100.00
13765;BME280;6953;48.810;9.204;2023-04-15T00:36:35;97779.78;;;5.56;100.00
13765;BME280;6953;48.810;9.204;2023-04-15T00:39:00;97812.31;;;5.64;100.00
13765;BME280;6953;48.810;9.204;2023-04-15T00:41:27;97769.41;;;5.54;100.00
13765;BME280;6953;48.810;9.204;2023-04-15T00:43:52;97781.91;;;5.65;100.00
13765;BME280;6953;48.810;9.204;2023-04-15T00:46:18;97769.41;;;5.54;100.00
13765;BME280;6953;48.810;9.204;2023-04-15T00:48:46;97789.03;;;5.61;100.00
13765;BME280;6953;48.810;9.204;2023-04-15T00:51:12;97787.34;;;5.60;100.00
13765;BME280;6953;48.810;9.204;2023-04-15T00:53:38;97783.19;;;5.56;100.00
13765;BME280;6953;48.810;9.204;2023-04-15T00:56:04;97765.13;;;5.53;100.00
13765;BME280;6953;48.810;9.204;2023-04-15T00:58:29;97790.72;;;5.62;100.00
13765;BME280;6953;48.810;9.204;2023-04-15T01:00:55;97745.84;;;5.40;100.00
13765;BME280;6953;48.810;9.204;2023-04-15T01:03:21;97721.53;;;5.23;100.00
13765;BME280;6953;48.810;9.204;2023-04-15T01:05:47;97628.53;;;4.76;100.00
13765;BME280;6953;48.810;9.204;2023-04-15T01:08:12;97792.88;;;5.71;100.00
13765;BME280;6953;48.810;9.204;2023-04-15T01:10:38;97812.63;;;5.75;100.00
13765;BME280;6953;48.810;9.204;2023-04-15T01:13:03;97791.94;;;5.72;100.00
13765;BME280;6953;48.810;9.204;2023-04-15T01:15:29;97789.44;;;5.71;100.00
13765;BME280;6953;48.810;9.204;2023-04-15T01:17:57;97595.22;;;4.48;100.00
13765;BME280;6953;48.810;9.204;2023-04-15T01:20:23;97508.88;;;3.90;100.00
13765;BME280;6953;48.810;9.204;2023-04-15T01:22:49;97500.59;;;3.82;100.00
13765;BME280;6953;48.810;9.204;2023-04-15T01:25:19;97792.06;;;5.52;100.00
13765;BME280;6953;48.810;9.204;2023-04-15T01:27:47;97789.81;;;5.45;100.00
13765;BME280;6953;48.810;9.204;2023-04-15T01:30:12;97501.22;;;3.68;100.00
13765;BME280;6953;48.810;9.204;2023-04-15T01:32:37;97484.59;;;3.54;100.00
13765;BME280;6953;48.810;9.204;2023-04-15T01:35:03;97797.34;;;5.32;100.00
13765;BME280;6953;48.810;9.204;2023-04-15T01:37:29;97564.91;;;3.94;100.00
13765;BME280;6953;48.810;9.204;2023-04-15T01:39:55;97784.59;;;5.10;100.00
13765;BME280;6953;48.810;9.204;2023-04-15T01:42:21;97791.03;;;5.19;100.00
13765;BME280;6953;48.810;9.204;2023-04-15T01:44:46;97819.72;;;5.18;100.00
13765;BME280;6953;48.810;9.204;2023-04-15T01:47:12;97796.31;;;5.18;100.00
13765;BME280;6953;48.810;9.204;2023-04-15T01:49:38;97785.56;;;4.89;100.00
13765;BME280;6953;48.810;9.204;2023-04-15T01:52:03;97786.19;;;5.12;100.00
13765;BME280;6953;48.810;9.204;2023-04-15T01:54:28;97795.72;;;5.11;100.00
13765;BME280;6953;48.810;9.204;2023-04-15T01:56:54;97788.28;;;5.04;100.00
13765;BME280;6953;48.810;9.204;2023-04-15T01:59:21;97794.81;;;5.12;100.00
13765;BME280;6953;48.810;9.204;2023-04-15T02:01:47;97787.09;;;5.11;100.00
13765;BME280;6953;48.810;9.204;2023-04-15T02:04:12;97794.63;;;5.17;100.00
13765;BME280;6953;48.810;9.204;2023-04-15T02:06:41;97786.75;;;5.18;100.00
13765;BME280;6953;48.810;9.204;2023-04-15T02:09:08;97821.47;;;5.17;100.00
13765;BME280;6953;48.810;9.204;2023-04-15T02:11:34;97783.31;;;5.18;100.00
13765;BME280;6953;48.810;9.204;2023-04-15T02:14:00;97784.94;;;5.20;100.00
13765;BME280;6953;48.810;9.204;2023-04-15T02:16:25;97794.97;;;5.28;100.00
13765;BME280;6953;48.810;9.204;2023-04-15T02:18:50;97815.34;;;5.37;100.00
13765;BME280;6953;48.810;9.204;2023-04-15T02:21:16;97721.44;;;5.08;100.00
13765;BME280;6953;48.810;9.204;2023-04-15T02:23:43;97780.81;;;5.52;100.00
13765;BME280;6953;48.810;9.204;2023-04-15T02:26:08;97500.47;;;3.85;100.00
13765;BME280;6953;48.810;9.204;2023-04-15T02:28:33;97799.16;;;5.49;100.00
13765;BME280;6953;48.810;9.204;2023-04-15T02:30:59;97607.66;;;4.42;100.00
13765;BME280;6953;48.810;9.204;2023-04-15T02:33:25;97754.97;;;5.30;100.00
13765;BME280;6953;48.810;9.204;2023-04-15T02:35:51;97777.19;;;5.37;100.00
13765;BME280;6953;48.810;9.204;2023-04-15T02:38:17;97452.72;;;3.52;100.00
13765;BME280;6953;48.810;9.204;2023-04-15T02:40:42;97769.94;;;5.44;100.00
13765;BME280;6953;48.810;9.204;2023-04-15T02:43:08;97757.25;;;5.38;100.00
13765;BME280;6953;48.810;9.204;2023-04-15T02:45:33;97448.91;;;3.59;100.00
13765;BME280;6953;48.810;9.204;2023-04-15T02:47:59;97774.34;;;5.42;100.00
13765;BME280;6953;48.810;9.204;2023-04-15T02:50:30;97775.72;;;5.32;100.00
13765;BME280;6953;48.810;9.204;2023-04-15T02:52:55;97665.75;;;4.58;100.00
13765;BME280;6953;48.810;9.204;2023-04-15T02:55:21;97785.69;;;5.04;100.00
13765;BME280;6953;48.810;9.204;2023-04-15T02:57:46;97772.56;;;5.07;100.00
13765;BME280;6953;48.810;9.204;2023-04-15T03:00:12;97769.00;;;5.10;100.00
13765;BME280;6953;48.810;9.204;2023-04-15T03:02:38;97684.91;;;4.55;100.00
13765;BME280;6953;48.810;9.204;2023-04-15T03:05:04;97759.13;;;4.98;100.00
13765;BME280;6953;48.810;9.204;2023-04-15T03:07:30;97775.78;;;4.94;100.00
13765;BME280;6953;48.810;9.204;2023-04-15T03:09:56;97497.78;;;3.09;100.00
13765;BME280;6953;48.810;9.204;2023-04-15T03:12:22;97542.03;;;3.45;100.00
13765;BME280;6953;48.810;9.204;2023-04-15T03:14:47;97785.25;;;4.95;100.00
13765;BME280;6953;48.810;9.204;2023-04-15T03:17:12;97783.69;;;4.91;100.00
13765;BME280;6953;48.810;9.204;2023-04-15T03:19:38;97778.66;;;4.88;100.00
13765;BME280;6953;48.810;9.204;2023-04-15T03:22:03;97711.97;;;4.50;100.00
13765;BME280;6953;48.810;9.204;2023-04-15T03:24:28;97775.84;;;4.92;100.00
13765;BME280;6953;48.810;9.204;2023-04-15T03:26:55;97779.22;;;4.94;100.00
13765;BME280;6953;48.810;9.204;2023-04-15T03:29:22;97776.81;;;4.90;100.00
13765;BME280;6953;48.810;9.204;2023-04-15T03:31:47;97701.94;;;4.42;100.00
13765;BME280;6953;48.810;9.204;2023-04-15T03:34:12;97797.78;;;4.87;100.00
13765;BME280;6953;48.810;9.204;2023-04-15T03:36:37;97810.75;;;4.87;100.00
13765;BME280;6953;48.810;9.204;2023-04-15T03:39:03;97780.50;;;4.86;100.00
13765;BME280;6953;48.810;9.204;2023-04-15T03:41:28;97772.88;;;4.81;100.00
13765;BME280;6953;48.810;9.204;2023-04-15T03:43:53;97783.28;;;4.81;100.00
13765;BME280;6953;48.810;9.204;2023-04-15T03:46:19;97776.38;;;4.80;100.00
13765;BME280;6953;48.810;9.204;2023-04-15T03:48:45;97473.78;;;3.06;100.00
13765;BME280;6953;48.810;9.204;2023-04-15T03:51:11;97675.31;;;4.19;100.00
13765;BME280;6953;48.810;9.204;2023-04-15T03:53:36;97523.69;;;3.29;100.00
13765;BME280;6953;48.810;9.204;2023-04-15T03:56:01;97808.16;;;4.87;100.00
13765;BME280;6953;48.810;9.204;2023-04-15T03:58:27;97776.81;;;4.90;100.00
13765;BME280;6953;48.810;9.204;2023-04-15T04:00:52;97772.47;;;4.90;100.00
13765;BME280;6953;48.810;9.204;2023-04-15T04:03:19;97779.72;;;5.02;100.00
13765;BME280;6953;48.810;9.204;2023-04-15T04:05:44;97764.59;;;4.92;100.00
13765;BME280;6953;48.810;9.204;2023-04-15T04:08:09;97785.00;;;5.01;100.00
13765;BME280;6953;48.810;9.204;2023-04-15T04:10:37;97797.13;;;5.00;100.00
13765;BME280;6953;48.810;9.204;2023-04-15T04:13:03;97785.69;;;5.04;100.00
13765;BME280;6953;48.810;9.204;2023-04-15T04:15:28;97825.41;;;5.08;100.00
13765;BME280;6953;48.810;9.204;2023-04-15T04:17:54;97836.09;;;5.00;100.00
13765;BME280;6953;48.810;9.204;2023-04-15T04:20:19;97791.22;;;4.97;100.00
13765;BME280;6953;48.810;9.204;2023-04-15T04:22:45;97793.84;;;4.97;100.00
13765;BME280;6953;48.810;9.204;2023-04-15T04:25:10;97791.09;;;5.00;100.00
13765;BME280;6953;48.810;9.204;2023-04-15T04:27:36;97502.50;;;3.40;100.00
13765;BME280;6953;48.810;9.204;2023-04-15T04:30:02;97782.41;;;5.01;100.00
13765;BME280;6953;48.810;9.204;2023-04-15T04:32:27;97510.34;;;3.38;100.00
13765;BME280;6953;48.810;9.204;2023-04-15T04:34:52;97793.56;;;5.03;100.00
13765;BME280;6953;48.810;9.204;2023-04-15T04:37:18;97802.00;;;5.08;100.00
13765;BME280;6953;48.810;9.204;2023-04-15T04:39:43;97518.13;;;3.38;100.00
13765;BME280;6953;48.810;9.204;2023-04-15T04:42:08;97802.06;;;5.06;100.00
13765;BME280;6953;48.810;9.204;2023-04-15T04:44:34;97841.00;;;5.08;100.00
13765;BME280;6953;48.810;9.204;2023-04-15T04:46:59;97642.63;;;4.15;100.00
13765;BME280;6953;48.810;9.204;2023-04-15T04:49:24;97801.91;;;5.09;100.00
13765;BME280;6953;48.810;9.204;2023-04-15T04:51:50;97802.56;;;5.14;100.00
13765;BME280;6953;48.810;9.204;2023-04-15T04:54:16;97805.81;;;5.19;100.00
13765;BME280;6953;48.810;9.204;2023-04-15T04:56:41;97781.19;;;4.89;100.00
13765;BME280;6953;48.810;9.204;2023-04-15T04:59:07;97808.09;;;5.25;100.00
13765;BME280;6953;48.810;9.204;2023-04-15T05:01:32;97805.38;;;5.28;100.00
13765;BME280;6953;48.810;9.204;2023-04-15T05:03:58;97812.13;;;5.32;100.00
13765;BME280;6953;48.810;9.204;2023-04-15T05:06:25;97794.31;;;5.23;100.00
13765;BME280;6953;48.810;9.204;2023-04-15T05:08:50;97714.81;;;4.82;100.00
13765;BME280;6953;48.810;9.204;2023-04-15T05:11:16;97497.56;;;3.54;100.00
13765;BME280;6953;48.810;9.204;2023-04-15T05:13:41;97836.63;;;5.45;100.00
13765;BME280;6953;48.810;9.204;2023-04-15T05:16:06;97848.59;;;5.49;100.00
13765;BME280;6953;48.810;9.204;2023-04-15T05:18:32;97812.88;;;5.52;100.00
13765;BME280;6953;48.810;9.204;2023-04-15T05:20:58;97843.88;;;5.57;100.00
13765;BME280;6953;48.810;9.204;2023-04-15T05:23:24;97815.97;;;5.60;100.00
13765;BME280;6953;48.810;9.204;2023-04-15T05:25:49;97564.56;;;4.19;99.89
13765;BME280;6953;48.810;9.204;2023-04-15T05:28:14;97530.56;;;4.07;99.80
13765;BME280;6953;48.810;9.204;2023-04-15T05:30:40;97601.03;;;4.53;99.55
13765;BME280;6953;48.810;9.204;2023-04-15T05:33:06;97804.19;;;5.89;99.46
13765;BME280;6953;48.810;9.204;2023-04-15T05:35:31;97520.84;;;4.29;98.52
13765;BME280;6953;48.810;9.204;2023-04-15T05:37:56;97838.53;;;6.14;98.40
13765;BME280;6953;48.810;9.204;2023-04-15T05:40:22;97710.63;;;5.69;98.71
13765;BME280;6953;48.810;9.204;2023-04-15T05:42:47;97745.41;;;6.02;98.46
13765;BME280;6953;48.810;9.204;2023-04-15T05:45:12;97590.50;;;5.27;97.32
13765;BME280;6953;48.810;9.204;2023-04-15T05:47:38;97710.72;;;6.18;96.98
13765;BME280;6953;48.810;9.204;2023-04-15T05:50:03;97834.25;;;7.28;96.78
13765;BME280;6953;48.810;9.204;2023-04-15T05:52:30;97668.00;;;7.16;92.74
13765;BME280;6953;48.810;9.204;2023-04-15T05:54:56;97804.41;;;8.83;88.91
13765;BME280;6953;48.810;9.204;2023-04-15T05:57:21;97807.09;;;9.51;83.63
13765;BME280;6953;48.810;9.204;2023-04-15T05:59:47;97714.59;;;9.51;79.54
13765;BME280;6953;48.810;9.204;2023-04-15T06:02:13;97792.66;;;10.76;76.53
13765;BME280;6953;48.810;9.204;2023-04-15T06:04:38;97592.72;;;10.23;70.80
13765;BME280;6953;48.810;9.204;2023-04-15T06:07:04;97618.16;;;11.07;68.50
13765;BME280;6953;48.810;9.204;2023-04-15T06:09:29;97627.66;;;11.79;65.84
13765;BME280;6953;48.810;9.204;2023-04-15T06:11:55;97785.78;;;13.76;61.09
13765;BME280;6953;48.810;9.204;2023-04-15T06:14:22;97816.03;;;14.37;57.12
13765;BME280;6953;48.810;9.204;2023-04-15T06:16:47;97816.88;;;14.57;56.07
13765;BME280;6953;48.810;9.204;2023-04-15T06:19:12;97740.91;;;14.61;54.46
13765;BME280;6953;48.810;9.204;2023-04-15T06:21:38;97594.72;;;14.32;52.86
13765;BME280;6953;48.810;9.204;2023-04-15T06:24:04;97765.06;;;15.96;49.73
13765;BME280;6953;48.810;9.204;2023-04-15T06:26:29;97842.50;;;16.57;47.72
13765;BME280;6953;48.810;9.204;2023-04-15T06:28:55;97771.28;;;16.63;46.52
13765;BME280;6953;48.810;9.204;2023-04-15T06:31:21;97822.13;;;17.04;45.05
13765;BME280;6953;48.810;9.204;2023-04-15T06:33:46;97602.94;;;16.13;43.98
13765;BME280;6953;48.810;9.204;2023-04-15T06:36:12;97826.38;;;18.16;42.48
13765;BME280;6953;48.810;9.204;2023-04-15T06:38:37;97823.66;;;18.70;39.92
13765;BME280;6953;48.810;9.204;2023-04-15T06:41:03;97835.66;;;18.74;40.08
13765;BME280;6953;48.810;9.204;2023-04-15T06:43:28;97858.16;;;19.14;38.96
13765;BME280;6953;48.810;9.204;2023-04-15T06:45:55;97848.53;;;19.64;36.91
13765;BME280;6953;48.810;9.204;2023-04-15T06:48:21;97838.56;;;20.24;36.23
13765;BME280;6953;48.810;9.204;2023-04-15T06:50:46;97769.94;;;20.18;34.95
13765;BME280;6953;48.810;9.204;2023-04-15T06:53:12;97828.00;;;20.56;34.66
13765;BME280;6953;48.810;9.204;2023-04-15T06:55:37;97854.09;;;21.02;33.53
13765;BME280;6953;48.810;9.204;2023-04-15T06:58:03;97683.56;;;20.85;31.79
13765;BME280;6953;48.810;9.204;2023-04-15T07:00:28;97860.81;;;22.85;30.35
13765;BME280;6953;48.810;9.204;2023-04-15T07:02:53;97875.53;;;23.93;28.36
13765;BME280;6953;48.810;9.204;2023-04-15T07:05:19;97871.69;;;24.53;27.00
13765;BME280;6953;48.810;9.204;2023-04-15T07:07:45;97875.34;;;24.37;26.53
13765;BME280;6953;48.810;9.204;2023-04-15T07:10:10;97795.75;;;23.29;26.99
13765;BME280;6953;48.810;9.204;2023-04-15T07:12:36;97808.16;;;22.55;28.72
13765;BME280;6953;48.810;9.204;2023-04-15T07:15:02;97850.59;;;21.49;30.40
13765;BME280;6953;48.810;9.204;2023-04-15T07:17:27;97837.16;;;19.79;33.61
13765;BME280;6953;48.810;9.204;2023-04-15T07:19:53;97752.69;;;18.00;36.65
13765;BME280;6953;48.810;9.204;2023-04-15T07:22:18;97808.13;;;17.50;38.88
13765;BME280;6953;48.810;9.204;2023-04-15T07:24:43;97765.97;;;16.54;41.34
13765;BME280;6953;48.810;9.204;2023-04-15T07:27:09;97613.63;;;14.87;43.11
13765;BME280;6953;48.810;9.204;2023-04-15T07:29:34;97788.75;;;15.59;44.51
13765;BME280;6953;48.810;9.204;2023-04-15T07:32:00;97607.56;;;14.37;45.17
13765;BME280;6953;48.810;9.204;2023-04-15T07:34:26;97774.78;;;15.17;45.99
13765;BME280;6953;48.810;9.204;2023-04-15T07:36:52;97735.72;;;15.00;46.26
13765;BME280;6953;48.810;9.204;2023-04-15T07:39:18;97811.22;;;15.23;47.11
13765;BME280;6953;48.810;9.204;2023-04-15T07:41:43;97841.13;;;16.13;45.66
13765;BME280;6953;48.810;9.204;2023-04-15T07:44:09;97617.44;;;16.47;41.69
13765;BME280;6953;48.810;9.204;2023-04-15T07:46:34;97831.25;;;19.17;38.49
13765;BME280;6953;48.810;9.204;2023-04-15T07:49:01;97820.59;;;21.07;33.73
13765;BME280;6953;48.810;9.204;2023-04-15T07:51:26;97860.84;;;22.54;30.78
13765;BME280;6953;48.810;9.204;2023-04-15T07:53:53;97846.38;;;23.38;28.56
13765;BME280;6953;48.810;9.204;2023-04-15T07:56:19;97838.59;;;23.66;28.18
13765;BME280;6953;48.810;9.204;2023-04-15T07:58:44;97856.81;;;23.70;28.24
13765;BME280;6953;48.810;9.204;2023-04-15T08:01:10;97820.81;;;23.13;28.61
13765;BME280;6953;48.810;9.204;2023-04-15T08:03:35;97602.34;;;22.24;28.54
13765;BME280;6953;48.810;9.204;2023-04-15T08:06:01;97840.84;;;25.20;26.53
13765;BME280;6953;48.810;9.204;2023-04-15T08:08:26;97738.06;;;25.11;24.92
13765;BME280;6953;48.810;9.204;2023-04-15T08:10:52;97867.50;;;26.51;24.29
13765;BME280;6953;48.810;9.204;2023-04-15T08:13:17;97688.88;;;26.65;23.08
13765;BME280;6953;48.810;9.204;2023-04-15T08:15:43;97872.81;;;27.90;22.26
13765;BME280;6953;48.810;9.204;2023-04-15T08:18:08;97850.16;;;27.27;23.10
13765;BME280;6953;48.810;9.204;2023-04-15T08:20:34;97765.22;;;26.45;23.30
13765;BME280;6953;48.810;9.204;2023-04-15T08:22:59;97865.00;;;26.97;23.14
13765;BME280;6953;48.810;9.204;2023-04-15T08:25:24;97849.22;;;26.87;23.16
13765;BME280;6953;48.810;9.204;2023-04-15T08:27:50;97849.16;;;25.25;24.94
13765;BME280;6953;48.810;9.204;2023-04-15T08:30:16;97819.19;;;23.49;26.67
13765;BME280;6953;48.810;9.204;2023-04-15T08:32:44;97824.16;;;22.71;28.25
13765;BME280;6953;48.810;9.204;2023-04-15T08:35:13;97829.38;;;23.68;27.87
13765;BME280;6953;48.810;9.204;2023-04-15T08:37:38;97853.25;;;24.35;26.43
13765;BME280;6953;48.810;9.204;2023-04-15T08:40:04;97696.75;;;24.08;25.83
13765;BME280;6953;48.810;9.204;2023-04-15T08:42:31;97848.78;;;26.84;23.83
13765;BME280;6953;48.810;9.204;2023-04-15T08:45:02;97867.25;;;28.68;21.37
13765;BME280;6953;48.810;9.204;2023-04-15T08:47:29;97864.88;;;30.57;19.92
13765;BME280;6953;48.810;9.204;2023-04-15T08:49:56;97884.00;;;32.20;18.43
13765;BME280;6953;48.810;9.204;2023-04-15T08:52:24;97888.22;;;31.52;18.58
13765;BME280;6953;48.810;9.204;2023-04-15T08:54:52;97874.41;;;30.77;19.00
13765;BME280;6953;48.810;9.204;2023-04-15T08:57:20;97865.41;;;30.65;19.09
13765;BME280;6953;48.810;9.204;2023-04-15T08:59:46;97871.66;;;31.13;18.99
13765;BME280;6953;48.810;9.204;2023-04-15T09:02:11;97884.19;;;31.95;17.79
13765;BME280;6953;48.810;9.204;2023-04-15T09:04:37;97711.44;;;31.67;17.33
13765;BME280;6953;48.810;9.204;2023-04-15T09:07:02;97885.94;;;33.77;16.78
13765;BME280;6953;48.810;9.204;2023-04-15T09:09:28;97876.59;;;34.17;16.41
13765;BME280;6953;48.810;9.204;2023-04-15T09:11:54;97867.09;;;33.59;16.57
13765;BME280;6953;48.810;9.204;2023-04-15T09:14:20;97893.56;;;33.07;16.39
13765;BME280;6953;48.810;9.204;2023-04-15T09:17:02;97893.69;;;33.68;16.74
13765;BME280;6953;48.810;9.204;2023-04-15T09:19:28;97805.41;;;33.48;15.87
13765;BME280;6953;48.810;9.204;2023-04-15T09:21:55;97912.75;;;33.12;16.11
13765;BME280;6953;48.810;9.204;2023-04-15T09:24:21;97730.03;;;31.29;17.10
13765;BME280;6953;48.810;9.204;2023-04-15T09:26:47;97880.19;;;31.16;18.03
13765;BME280;6953;48.810;9.204;2023-04-15T09:29:16;97884.13;;;29.51;19.14
13765;BME280;6953;48.810;9.204;2023-04-15T09:31:42;97825.69;;;29.13;19.27
13765;BME280;6953;48.810;9.204;2023-04-15T09:34:08;97823.34;;;29.78;19.13
13765;BME280;6953;48.810;9.204;2023-04-15T09:39:17;97885.31;;;29.62;19.51
13765;BME280;6953;48.810;9.204;2023-04-15T09:41:42;97691.75;;;27.74;19.95
13765;BME280;6953;48.810;9.204;2023-04-15T09:44:25;97685.78;;;26.68;20.02
13765;BME280;6953;48.810;9.204;2023-04-15T09:46:50;97869.25;;;26.72;21.12
13765;BME280;6953;48.810;9.204;2023-04-15T09:49:16;97870.34;;;25.82;22.34
13765;BME280;6953;48.810;9.204;2023-04-15T09:51:42;97858.19;;;25.38;22.74
13765;BME280;6953;48.810;9.204;2023-04-15T09:54:08;97705.13;;;23.69;23.26
13765;BME280;6953;48.810;9.204;2023-04-15T09:56:35;97847.06;;;24.35;23.93
13765;BME280;6953;48.810;9.204;2023-04-15T09:59:04;97853.63;;;23.89;24.69
13765;BME280;6953;48.810;9.204;2023-04-15T10:01:30;97853.06;;;23.94;25.59
13765;BME280;6953;48.810;9.204;2023-04-15T10:03:56;97848.25;;;24.18;25.75
13765;BME280;6953;48.810;9.204;2023-04-15T10:06:23;97859.19;;;24.81;24.67
13765;BME280;6953;48.810;9.204;2023-04-15T10:08:50;97841.59;;;24.93;24.84
13765;BME280;6953;48.810;9.204;2023-04-15T10:11:17;97845.31;;;25.13;24.79
13765;BME280;6953;48.810;9.204;2023-04-15T10:13:44;97795.22;;;24.14;25.16
13765;BME280;6953;48.810;9.204;2023-04-15T10:16:14;97844.91;;;24.45;25.49
13765;BME280;6953;48.810;9.204;2023-04-15T10:18:45;97870.59;;;24.68;25.17
13765;BME280;6953;48.810;9.204;2023-04-15T10:21:12;97852.63;;;26.22;23.49
13765;BME280;6953;48.810;9.204;2023-04-15T10:23:44;97866.81;;;27.75;21.69
13765;BME280;6953;48.810;9.204;2023-04-15T10:26:10;97871.88;;;30.22;19.50
13765;BME280;6953;48.810;9.204;2023-04-15T10:28:37;97900.75;;;30.88;18.09
13765;BME280;6953;48.810;9.204;2023-04-15T10:31:03;97928.94;;;29.96;19.15
13765;BME280;6953;48.810;9.204;2023-04-15T10:33:30;97903.06;;;29.51;19.74
13765;BME280;6953;48.810;9.204;2023-04-15T10:35:56;97665.84;;;27.60;20.39
13765;BME280;6953;48.810;9.204;2023-04-15T10:41:22;97718.88;;;29.10;19.47
13765;BME280;6953;48.810;9.204;2023-04-15T10:44:09;97918.00;;;29.84;19.17
13765;BME280;6953;48.810;9.204;2023-04-15T10:46:38;97721.78;;;27.90;19.94
13765;BME280;6953;48.810;9.204;2023-04-15T10:49:15;97917.00;;;28.15;20.44
13765;BME280;6953;48.810;9.204;2023-04-15T10:51:43;97894.19;;;27.79;20.96
13765;BME280;6953;48.810;9.204;2023-04-15T10:56:52;97850.34;;;28.42;19.52
13765;BME280;6953;48.810;9.204;2023-04-15T10:59:32;97904.53;;;30.45;18.59
13765;BME280;6953;48.810;9.204;2023-04-15T11:02:06;97938.09;;;30.86;17.10
13765;BME280;6953;48.810;9.204;2023-04-15T11:04:56;97882.69;;;30.64;17.42
13765;BME280;6953;48.810;9.204;2023-04-15T11:10:01;97919.56;;;31.19;17.69
13765;BME280;6953;48.810;9.204;2023-04-15T11:12:34;97921.84;;;32.03;16.15
13765;BME280;6953;48.810;9.204;2023-04-15T11:18:21;97930.06;;;32.15;16.23
13765;BME280;6953;48.810;9.204;2023-04-15T11:21:06;97938.63;;;33.15;15.79
13765;BME280;6953;48.810;9.204;2023-04-15T11:23:39;97872.16;;;33.11;16.08
13765;BME280;6953;48.810;9.204;2023-04-15T11:26:08;97922.69;;;32.96;16.04
13765;BME280;6953;48.810;9.204;2023-04-15T11:28:36;97930.56;;;31.53;17.52
13765;BME280;6953;48.810;9.204;2023-04-15T11:31:10;97861.63;;;28.76;18.63
13765;BME280;6953;48.810;9.204;2023-04-15T11:33:37;97914.50;;;27.75;19.94
13765;BME280;6953;48.810;9.204;2023-04-15T11:36:03;97709.94;;;25.55;20.87
13765;BME280;6953;48.810;9.204;2023-04-15T11:38:29;97896.03;;;25.85;22.33
13765;BME280;6953;48.810;9.204;2023-04-15T11:40:55;97893.56;;;25.06;23.02
13765;BME280;6953;48.810;9.204;2023-04-15T11:43:22;97815.56;;;23.94;24.60
13765;BME280;6953;48.810;9.204;2023-04-15T11:45:51;97885.22;;;23.57;25.75
13765;BME280;6953;48.810;9.204;2023-04-15T11:48:17;97820.72;;;22.54;27.51
13765;BME280;6953;48.810;9.204;2023-04-15T11:50:43;97737.00;;;21.23;29.06
13765;BME280;6953;48.810;9.204;2023-04-15T11:53:10;97855.25;;;20.92;34.09
13765;BME280;6953;48.810;9.204;2023-04-15T11:55:44;97611.53;;;18.65;36.59
13765;BME280;6953;48.810;9.204;2023-04-15T11:58:18;97845.81;;;20.56;35.32
13765;BME280;6953;48.810;9.204;2023-04-15T12:00:54;97884.25;;;22.44;32.20
13765;BME280;6953;48.810;9.204;2023-04-15T12:03:45;97648.81;;;22.83;28.65
13765;BME280;6953;48.810;9.204;2023-04-15T12:11:27;97907.78;;;27.26;23.06
13765;BME280;6953;48.810;9.204;2023-04-15T12:14:07;97923.66;;;26.00;24.97
13765;BME280;6953;48.810;9.204;2023-04-15T12:16:35;97711.00;;;23.21;26.09
13765;BME280;6953;48.810;9.204;2023-04-15T12:19:09;97884.31;;;22.97;27.70
13765;BME280;6953;48.810;9.204;2023-04-15T12:21:36;97826.91;;;21.46;30.34
13765;BME280;6953;48.810;9.204;2023-04-15T12:24:03;97905.75;;;20.85;32.87
13765;BME280;6953;48.810;9.204;2023-04-15T12:26:36;97928.00;;;20.01;34.16
13765;BME280;6953;48.810;9.204;2023-04-15T12:29:05;97660.03;;;17.09;43.23
13765;BME280;6953;48.810;9.204;2023-04-15T12:31:31;97969.06;;;16.63;54.50
13765;BME280;6953;48.810;9.204;2023-04-15T12:33:58;97957.25;;;15.05;63.81
13765;BME280;6953;48.810;9.204;2023-04-15T12:36:25;98002.66;;;14.35;70.77
13765;BME280;6953;48.810;9.204;2023-04-15T12:38:51;97968.53;;;13.55;73.10
13765;BME280;6953;48.810;9.204;2023-04-15T12:41:16;97914.53;;;12.68;75.25
13765;BME280;6953;48.810;9.204;2023-04-15T12:43:45;98001.00;;;12.98;77.38
13765;BME280;6953;48.810;9.204;2023-04-15T12:46:13;98010.75;;;12.72;78.44
13765;BME280;6953;48.810;9.204;2023-04-15T12:48:39;97937.84;;;12.26;79.01
13765;BME280;6953;48.810;9.204;2023-04-15T12:51:05;98004.41;;;12.75;79.15
13765;BME280;6953;48.810;9.204;2023-04-15T12:53:31;98007.22;;;12.97;79.28
13765;BME280;6953;48.810;9.204;2023-04-15T12:55:56;97986.13;;;13.20;78.39
13765;BME280;6953;48.810;9.204;2023-04-15T12:58:21;98041.25;;;13.68;78.80
13765;BME280;6953;48.810;9.204;2023-04-15T13:00:47;97997.34;;;13.91;77.86
13765;BME280;6953;48.810;9.204;2023-04-15T13:03:13;98041.75;;;14.30;76.85
13765;BME280;6953;48.810;9.204;2023-04-15T13:05:39;98003.22;;;14.49;77.40
13765;BME280;6953;48.810;9.204;2023-04-15T13:08:05;97837.56;;;13.66;77.93
13765;BME280;6953;48.810;9.204;2023-04-15T13:10:31;97716.16;;;13.04;76.28
13765;BME280;6953;48.810;9.204;2023-04-15T13:12:56;97985.34;;;14.74;74.38
13765;BME280;6953;48.810;9.204;2023-04-15T13:15:22;97742.97;;;13.20;72.92
13765;BME280;6953;48.810;9.204;2023-04-15T13:17:48;97804.22;;;13.98;71.43
13765;BME280;6953;48.810;9.204;2023-04-15T13:20:14;97986.16;;;15.69;66.75
13765;BME280;6953;48.810;9.204;2023-04-15T13:22:39;97930.00;;;15.86;63.64
13765;BME280;6953;48.810;9.204;2023-04-15T13:25:06;98020.16;;;16.83;59.96
13765;BME280;6953;48.810;9.204;2023-04-15T13:27:32;97911.19;;;16.39;57.36